Crow Hill, Vermont
Current Conditions -  °F | °C
As of 8:15 AM on Monday 22 Dec 2014 (Local Time) from KFSO Reporting Station
Haze Haze  
Wind Chill: 18°   Ceiling: 200
Heat Index: 18°   Visibility: 2.5mi
Dew Point: 16°   Wind: 0mph
Humidity: 93%   Direction: NA
Pressure: 30.41"   Gusts: NA
Location:  44.8776°N, 72.9201°W
Report Text: KFSO 221315Z AUTO 00000KT 2 1/2SM BR OVC002 M08/M09 A3041 RMK AO2 T10801090
Loading
Personal Weather Stations






























Interactive Weather Map New forecast layout! Learn more

10-Day Weather Forecast

Advertisements
Track Severe Weather on mobile